Time;durP1;ratioP1;P1;durP2;ratioP2;P2;SDS_P1;SDS_P2;PMS_P1;PMS_P2;Temp;Humidity;BMP_temperature;BMP_pressure;BME280_temperature;BME280_humidity;BME280_pressure;Samples;Min_cycle;Max_cycle;Signal;HPM_P1;HPM_P2
2021/06/24 00:00:58;;;;;;;23.00;19.50;;;;;;;20.50;84.17;96319.13;5074538;28;20094;-82
2021/06/24 00:03:25;;;;;;;25.00;20.45;;;;;;;20.35;85.29;96323.09;5074039;28;20028;-82
2021/06/24 00:05:52;;;;;;;21.95;19.58;;;;;;;20.40;84.55;96333.28;5075562;28;20404;-82
2021/06/24 00:08:18;;;;;;;27.27;21.35;;;;;;;20.23;84.85;96304.47;5075542;28;20024;-82
2021/06/24 00:10:45;;;;;;;27.10;22.50;;;;;;;20.44;85.03;96354.28;5075488;28;20090;-82
2021/06/24 00:13:11;;;;;;;28.20;21.95;;;;;;;20.33;84.99;96324.88;5073925;28;20031;-81
2021/06/24 00:15:37;;;;;;;26.10;21.58;;;;;;;20.34;85.04;96324.34;5075433;28;20028;-82
2021/06/24 00:18:03;;;;;;;27.65;22.17;;;;;;;20.28;84.93;96312.66;5075350;28;20099;-82
2021/06/24 00:20:28;;;;;;;25.92;20.58;;;;;;;19.92;85.18;96292.88;5072970;28;20135;-82
2021/06/24 00:22:54;;;;;;;23.17;20.67;;;;;;;20.15;85.62;96320.88;5074166;28;20020;-82
2021/06/24 00:25:19;;;;;;;27.42;20.92;;;;;;;20.24;85.14;96339.03;5075024;28;20033;-82
2021/06/24 00:27:45;;;;;;;23.98;20.55;;;;;;;19.92;85.11;96292.09;5075035;28;20023;-82
2021/06/24 00:30:11;;;;;;;25.55;20.25;;;;;;;20.04;84.91;96307.97;5072385;28;20024;-82
2021/06/24 00:32:37;;;;;;;26.90;20.42;;;;;;;19.95;85.22;96296.59;5074052;28;20040;-82
2021/06/24 00:35:03;;;;;;;24.92;20.50;;;;;;;19.92;85.33;96301.16;5073940;28;20024;-82
2021/06/24 00:37:29;;;;;;;23.10;19.70;;;;;;;20.12;85.44;96330.91;5074722;28;20028;-82
2021/06/24 00:39:56;;;;;;;22.02;17.95;;;;;;;20.06;85.67;96324.72;5072228;28;20315;-82
2021/06/24 00:42:23;;;;;;;21.80;19.50;;;;;;;20.06;85.50;96313.72;5090653;28;20028;-81
2021/06/24 00:44:49;;;;;;;25.73;18.90;;;;;;;19.91;85.77;96299.63;5074850;28;20029;-82
2021/06/24 00:47:15;;;;;;;24.60;18.50;;;;;;;19.86;86.06;96298.44;5088713;28;20511;-82
2021/06/24 00:49:40;;;;;;;22.35;18.25;;;;;;;19.83;85.81;96273.94;5072964;28;20107;-81
2021/06/24 00:52:06;;;;;;;24.67;18.73;;;;;;;20.18;85.48;96314.28;5073657;28;20432;-81
2021/06/24 00:54:32;;;;;;;23.92;19.88;;;;;;;20.19;85.97;96321.31;5074654;28;20050;-81
2021/06/24 00:56:57;;;;;;;28.33;22.50;;;;;;;19.77;86.31;96273.28;5071978;28;20071;-81
2021/06/24 00:59:23;;;;;;;26.67;21.52;;;;;;;19.81;86.74;96263.44;5073440;28;20077;-81
2021/06/24 01:01:48;;;;;;;28.73;22.73;;;;;;;19.68;86.39;96237.84;5074198;28;20119;-81
2021/06/24 01:04:21;;;;;;;27.83;22.65;;;;;;;19.83;86.19;96249.91;5074698;28;20032;-80
2021/06/24 01:06:51;;;;;;;29.13;22.95;;;;;;;20.07;86.60;96284.13;5074334;28;20052;-80
2021/06/24 01:09:17;;;;;;;27.55;22.00;;;;;;;20.05;86.08;96286.69;5073308;28;20443;-81
2021/06/24 01:11:43;;;;;;;29.00;20.40;;;;;;;19.82;86.05;96262.19;5074338;28;20032;-81
2021/06/24 01:14:10;;;;;;;24.45;19.35;;;;;;;19.76;86.16;96253.25;5072664;28;20100;-81
2021/06/24 01:16:37;;;;;;;24.10;17.95;;;;;;;19.73;85.56;96245.28;5074170;28;20413;-81
2021/06/24 01:19:04;;;;;;;23.00;17.38;;;;;;;19.52;85.29;96215.47;5073118;28;20024;-81
2021/06/24 01:21:30;;;;;;;22.45;17.63;;;;;;;20.13;84.96;96299.34;5072478;28;20021;-81
2021/06/24 01:23:56;;;;;;;23.13;16.42;;;;;;;19.95;85.07;96269.78;5072993;28;20323;-81
2021/06/24 01:26:21;;;;;;;20.80;15.30;;;;;;;19.75;84.44;96226.22;5074000;28;20020;-81
2021/06/24 01:28:47;;;;;;;21.90;16.35;;;;;;;20.24;84.80;96295.69;5072746;28;20452;-82
2021/06/24 01:31:14;;;;;;;20.45;15.93;;;;;;;19.93;84.25;96255.78;5071345;28;20028;-81
2021/06/24 01:33:40;;;;;;;25.70;16.48;;;;;;;20.25;83.26;96299.19;5074010;28;20020;-83
2021/06/24 01:36:07;;;;;;;23.80;17.13;;;;;;;19.91;83.27;96238.25;5072849;28;20074;-81
2021/06/24 01:38:33;;;;;;;20.17;16.05;;;;;;;20.23;83.93;96299.69;5071826;28;20438;-82
2021/06/24 01:40:59;;;;;;;22.38;15.85;;;;;;;20.21;83.25;96293.97;5072394;28;20020;-82
2021/06/24 01:43:25;;;;;;;19.80;16.65;;;;;;;19.80;83.63;96258.44;5072747;28;20380;-81
2021/06/24 01:45:53;;;;;;;24.00;16.80;;;;;;;19.92;84.42;96283.84;5073664;28;20120;-83
2021/06/24 01:48:20;;;;;;;22.90;15.50;;;;;;;19.72;84.65;96258.31;5072233;28;20060;-81
2021/06/24 01:50:47;;;;;;;18.60;16.27;;;;;;;19.63;84.75;96259.41;5072728;28;20427;-81
2021/06/24 01:53:13;;;;;;;19.92;15.30;;;;;;;19.57;84.91;96252.47;5072643;28;20450;-81
2021/06/24 01:55:40;;;;;;;22.25;16.95;;;;;;;19.49;84.94;96240.53;5071988;28;20134;-82
2021/06/24 01:58:07;;;;;;;21.60;16.88;;;;;;;19.51;84.88;96255.28;5072198;28;20131;-81
2021/06/24 02:00:34;;;;;;;21.92;17.25;;;;;;;19.73;85.07;96289.34;5073371;28;20029;-81
2021/06/24 02:03:00;;;;;;;22.50;17.05;;;;;;;19.86;84.93;96309.44;5073608;28;20028;-81
2021/06/24 02:05:25;;;;;;;22.08;16.63;;;;;;;19.51;85.00;96252.53;5071943;28;20104;-80
2021/06/24 02:07:51;;;;;;;20.40;16.35;;;;;;;19.77;84.94;96311.84;5073564;28;20347;-81
2021/06/24 02:10:17;;;;;;;22.45;15.93;;;;;;;19.56;85.24;96289.53;5072432;28;20028;-81
2021/06/24 02:12:43;;;;;;;21.08;16.85;;;;;;;19.70;85.86;96301.41;5073573;28;20020;-81
2021/06/24 02:15:11;;;;;;;23.67;16.55;;;;;;;19.41;84.83;96239.66;5072134;28;20055;-81
2021/06/24 02:17:38;;;;;;;20.85;16.25;;;;;;;19.86;84.47;96303.19;5072366;28;20118;-81
2021/06/24 02:20:07;;;;;;;26.35;17.33;;;;;;;19.53;84.26;96244.50;5073458;28;20113;-81
2021/06/24 02:22:34;;;;;;;22.08;16.58;;;;;;;19.70;84.82;96296.63;5087531;28;20051;-81
2021/06/24 02:24:59;;;;;;;20.73;17.30;;;;;;;19.62;85.20;96285.47;5073317;28;20043;-81
2021/06/24 02:27:25;;;;;;;21.08;17.58;;;;;;;19.35;84.56;96243.22;5072302;28;20420;-81
2021/06/24 02:29:50;;;;;;;20.00;17.13;;;;;;;19.46;84.88;96263.63;5071842;28;20052;-81
2021/06/24 02:32:16;;;;;;;22.48;17.23;;;;;;;19.66;84.77;96282.44;5072032;28;20024;-80
2021/06/24 02:34:45;;;;;;;21.70;17.27;;;;;;;19.73;84.46;96295.63;5073146;28;20027;-81
2021/06/24 02:37:11;;;;;;;21.77;17.17;;;;;;;19.43;84.85;96250.88;5072114;28;20031;-81
2021/06/24 02:39:36;;;;;;;24.58;16.65;;;;;;;19.72;85.56;96301.66;5071665;28;20024;-81
2021/06/24 02:42:02;;;;;;;21.75;16.65;;;;;;;19.79;84.76;96307.31;5072146;28;20116;-81
2021/06/24 02:44:28;;;;;;;25.00;17.20;;;;;;;19.31;85.48;96261.28;5071956;28;20029;-81
2021/06/24 02:46:53;;;;;;;22.48;15.93;;;;;;;19.53;85.02;96285.06;5073108;28;20070;-81
2021/06/24 02:49:19;;;;;;;22.42;16.73;;;;;;;19.22;83.82;96229.34;5087221;28;20028;-81
2021/06/24 02:51:46;;;;;;;23.00;17.33;;;;;;;19.42;83.98;96238.38;5072059;28;20028;-81
2021/06/24 02:54:13;;;;;;;23.73;17.67;;;;;;;19.34;83.53;96241.75;5073055;28;20025;-81
2021/06/24 02:56:39;;;;;;;24.73;17.80;;;;;;;19.62;84.25;96277.22;5072079;28;20316;-81
2021/06/24 02:59:08;;;;;;;20.48;16.73;;;;;;;19.49;83.73;96271.56;5088456;28;20029;-81
2021/06/24 03:01:35;;;;;;;22.30;18.25;;;;;;;19.31;84.09;96250.28;5073024;28;20401;-81
2021/06/24 03:04:00;;;;;;;23.90;16.95;;;;;;;19.16;84.57;96245.19;5072939;28;20021;-81
2021/06/24 03:06:26;;;;;;;20.17;16.98;;;;;;;19.35;84.44;96275.53;5071363;28;20055;-81
2021/06/24 03:08:52;;;;;;;20.67;17.48;;;;;;;19.34;85.41;96257.50;5071853;28;20413;-81
2021/06/24 03:11:18;;;;;;;24.60;19.50;;;;;;;19.45;85.13;96273.91;5073661;28;20039;-81
2021/06/24 03:13:48;;;;;;;22.63;18.08;;;;;;;19.47;85.38;96292.66;5074852;28;20032;-81
2021/06/24 03:16:13;;;;;;;23.03;19.13;;;;;;;19.48;85.25;96288.63;5075507;28;20155;-81
2021/06/24 03:18:39;;;;;;;23.33;18.60;;;;;;;19.28;85.48;96265.06;5074980;28;20467;-81
2021/06/24 03:21:04;;;;;;;26.90;20.30;;;;;;;19.30;86.32;96279.81;5075165;28;20094;-81
2021/06/24 03:23:30;;;;;;;27.80;21.75;;;;;;;19.23;86.58;96265.88;5073534;28;20040;-81
2021/06/24 03:25:56;;;;;;;25.02;20.52;;;;;;;19.44;86.60;96294.44;5076014;28;20465;-81
2021/06/24 03:28:22;;;;;;;28.55;22.08;;;;;;;19.21;86.73;96255.41;5076206;28;20331;-81
2021/06/24 03:30:48;;;;;;;26.73;21.92;;;;;;;19.24;86.49;96262.63;5075222;28;20031;-81
2021/06/24 03:33:13;;;;;;;27.80;21.75;;;;;;;19.45;86.92;96281.41;5073535;28;20020;-81
2021/06/24 03:35:39;;;;;;;28.50;22.02;;;;;;;19.36;86.91;96275.00;5075116;28;20408;-81
2021/06/24 03:38:05;;;;;;;26.98;22.05;;;;;;;19.47;87.64;96306.41;5075066;28;20058;-81
2021/06/24 03:40:31;;;;;;;32.58;22.38;;;;;;;19.45;87.02;96289.69;5075129;28;20032;-81
2021/06/24 03:42:57;;;;;;;26.13;22.10;;;;;;;19.46;87.74;96291.16;5075578;28;20336;-81
2021/06/24 03:45:22;;;;;;;29.25;22.48;;;;;;;19.47;87.50;96285.13;5075837;28;20016;-81
2021/06/24 03:47:48;;;;;;;29.75;21.25;;;;;;;19.43;87.13;96272.91;5074898;28;20063;-81
2021/06/24 03:50:14;;;;;;;28.63;21.52;;;;;;;19.68;87.96;96306.69;5074327;28;20052;-81
2021/06/24 03:52:40;;;;;;;26.33;21.95;;;;;;;19.81;86.87;96296.50;5075883;28;20028;-81
2021/06/24 03:55:07;;;;;;;28.30;21.80;;;;;;;19.92;86.02;96303.13;5075734;28;20404;-82
2021/06/24 03:57:33;;;;;;;30.77;22.48;;;;;;;19.84;85.84;96287.19;5074704;28;20021;-83
2021/06/24 03:59:59;;;;;;;28.42;21.40;;;;;;;20.09;84.93;96303.66;5074398;28;20039;-81
2021/06/24 04:02:24;;;;;;;28.80;22.73;;;;;;;19.89;85.71;96300.16;5075729;28;20021;-81
2021/06/24 04:04:50;;;;;;;28.25;22.42;;;;;;;19.82;85.35;96270.47;5074536;28;20321;-81
2021/06/24 04:07:16;;;;;;;33.92;22.30;;;;;;;20.01;85.17;96284.22;5073278;28;20032;-80
2021/06/24 04:09:41;;;;;;;25.50;20.90;;;;;;;20.09;84.13;96289.88;5075199;28;20021;-82
2021/06/24 04:12:07;;;;;;;28.95;21.75;;;;;;;19.91;84.57;96269.31;5075535;28;20027;-82
2021/06/24 04:14:32;;;;;;;29.52;21.02;;;;;;;19.94;85.42;96287.56;5075353;28;20024;-82
2021/06/24 04:16:58;;;;;;;28.02;21.30;;;;;;;19.96;85.18;96284.28;5073867;28;20052;-82
2021/06/24 04:19:24;;;;;;;32.80;20.85;;;;;;;20.00;85.45;96273.72;5075387;28;20077;-82
2021/06/24 04:21:49;;;;;;;25.35;20.83;;;;;;;20.33;84.58;96300.78;5075173;28;20024;-82
2021/06/24 04:24:16;;;;;;;27.35;20.52;;;;;;;20.27;84.97;96288.38;5075299;28;20028;-82
2021/06/24 04:26:42;;;;;;;28.08;20.80;;;;;;;20.20;84.30;96267.66;5072344;28;20333;-82
2021/06/24 04:29:08;;;;;;;27.20;20.30;;;;;;;20.25;85.09;96272.34;5073892;28;20056;-82
2021/06/24 04:31:35;;;;;;;24.27;19.67;;;;;;;20.40;84.47;96302.97;5074759;28;20456;-82
2021/06/24 04:34:00;;;;;;;25.15;19.88;;;;;;;20.40;84.47;96302.97;5072838;28;20036;-83
2021/06/24 04:36:26;;;;;;;27.73;21.23;;;;;;;20.26;84.74;96284.88;5073550;28;20025;-82
2021/06/24 04:38:51;;;;;;;24.90;20.20;;;;;;;20.21;85.58;96282.94;5074753;28;20034;-83
2021/06/24 04:41:17;;;;;;;24.60;20.38;;;;;;;20.39;84.22;96309.72;5073801;28;20154;-81
2021/06/24 04:43:43;;;;;;;22.50;19.30;;;;;;;20.39;84.22;96309.72;5071754;28;20024;-83
2021/06/24 04:46:09;;;;;;;27.55;20.50;;;;;;;20.39;84.22;96309.72;5074647;28;20313;-82
2021/06/24 04:48:34;;;;;;;25.65;19.50;;;;;;;20.39;84.22;96309.72;5074366;28;20036;-83
2021/06/24 04:51:00;;;;;;;29.17;21.30;;;;;;;20.40;84.27;96282.91;5074536;28;20024;-82
2021/06/24 04:53:25;;;;;;;27.25;21.08;;;;;;;20.53;85.16;96310.56;5071923;28;20034;-82
2021/06/24 04:55:51;;;;;;;26.73;19.17;;;;;;;20.53;85.16;96310.56;5074279;28;20052;-83
2021/06/24 04:58:16;;;;;;;27.58;19.10;;;;;;;20.58;82.57;96290.41;5074612;28;20309;-83
2021/06/24 05:00:42;;;;;;;28.65;19.58;;;;;;;20.58;82.57;96290.41;5071573;28;20035;-83
2021/06/24 05:03:11;;;;;;;25.40;19.00;;;;;;;20.58;82.57;96290.41;5072578;28;20115;-84
2021/06/24 05:05:37;;;;;;;25.55;19.70;;;;;;;20.58;82.57;96290.41;5063694;28;20290;-83
2021/06/24 05:08:11;;;;;;;25.40;18.75;;;;;;;20.58;82.57;96290.41;5074557;28;20060;-82
2021/06/24 05:10:37;;;;;;;26.02;19.48;;;;;;;-145.61;100.00;68426.72;5073223;28;20029;-84
2021/06/24 05:13:03;;;;;;;25.95;19.33;;;;;;;-145.61;100.00;68426.72;5073241;28;20077;-84
2021/06/24 05:15:28;;;;;;;30.20;19.20;;;;;;;-145.61;100.00;68426.72;5070101;28;20317;-86
2021/06/24 05:17:54;;;;;;;22.42;18.95;;;;;;;-145.61;100.00;68426.72;5071002;28;20119;-84
2021/06/24 05:20:20;;;;;;;26.80;18.98;;;;;;;-145.61;100.00;68426.72;5073090;28;20032;-84
2021/06/24 05:22:46;;;;;;;24.17;18.77;;;;;;;-145.61;100.00;68426.72;5058898;28;20029;-83
2021/06/24 05:25:12;;;;;;;29.35;19.98;;;;;;;-145.61;100.00;68426.72;5061483;28;20031;-84
2021/06/24 05:27:37;;;;;;;30.38;20.60;;;;;;;-145.61;100.00;68426.72;5071293;28;20034;-84
2021/06/24 05:30:05;;;;;;;29.80;20.73;;;;;;;-145.61;100.00;68426.72;5074384;28;20052;-84
2021/06/24 05:32:31;;;;;;;26.20;20.25;;;;;;;-145.61;100.00;68426.72;5072750;28;20041;-84
2021/06/24 05:34:56;;;;;;;32.08;21.90;;;;;;;-145.61;100.00;68426.72;5071797;28;20028;-83
2021/06/24 05:37:22;;;;;;;30.65;22.70;;;;;;;-145.61;100.00;68426.72;5072971;28;20362;-86
2021/06/24 05:39:48;;;;;;;27.15;23.20;;;;;;;-145.61;100.00;68426.72;5069487;28;20025;-86
2021/06/24 05:42:13;;;;;;;32.92;23.45;;;;;;;20.58;82.57;96290.41;5089652;28;20320;-85
2021/06/24 05:44:39;;;;;;;34.83;24.92;;;;;;;20.58;82.57;96290.41;5072199;28;20024;-85
2021/06/24 05:47:05;;;;;;;29.88;23.50;;;;;;;-145.61;100.00;68426.72;5072489;28;20439;-85
2021/06/24 05:49:30;;;;;;;31.85;24.90;;;;;;;20.58;82.57;96290.41;5072677;28;20020;-85
2021/06/24 05:51:56;;;;;;;32.47;23.38;;;;;;;-145.61;100.00;68426.72;5069069;28;20345;-86
2021/06/24 05:54:22;;;;;;;30.48;22.77;;;;;;;-145.61;100.00;68426.72;5072086;28;20438;-85
2021/06/24 05:56:47;;;;;;;30.50;24.10;;;;;;;-145.61;100.00;68426.72;5073666;28;20024;-85
2021/06/24 05:59:13;;;;;;;33.15;24.48;;;;;;;-145.61;100.00;68426.72;5073773;28;20020;-86
2021/06/24 06:01:47;;;;;;;31.13;24.30;;;;;;;-145.61;100.00;68426.72;5073634;28;20028;-86
2021/06/24 06:04:14;;;;;;;28.90;23.50;;;;;;;-145.61;100.00;68426.72;5073844;28;20112;-85
2021/06/24 06:06:39;;;;;;;27.52;24.40;;;;;;;-145.61;100.00;68426.72;5072169;28;20074;-86
2021/06/24 06:09:06;;;;;;;32.13;25.88;;;;;;;-145.61;100.00;68426.72;5089330;28;20028;-85
2021/06/24 06:11:31;;;;;;;29.83;23.95;;;;;;;-145.61;100.00;68426.72;5070857;28;20024;-85
2021/06/24 06:13:57;;;;;;;28.08;24.23;;;;;;;-145.61;100.00;68426.72;5088527;28;20028;-85
2021/06/24 06:16:23;;;;;;;36.03;25.70;;;;;;;-145.61;100.00;68426.72;5072132;28;20029;-85
2021/06/24 06:18:49;;;;;;;34.58;24.77;;;;;;;-145.61;100.00;68426.72;5071400;28;20124;-85
2021/06/24 06:21:15;;;;;;;30.45;25.30;;;;;;;-145.61;100.00;68426.72;5071326;28;20024;-85
2021/06/24 06:23:41;;;;;;;30.77;23.70;;;;;;;-145.61;100.00;68426.72;5072313;28;20028;-86
2021/06/24 06:26:06;;;;;;;36.88;23.42;;;;;;;-145.61;100.00;68426.72;5073460;28;20016;-86
2021/06/24 06:28:32;;;;;;;31.27;20.77;;;;;;;-145.61;100.00;68426.72;5071629;28;20056;-87
2021/06/24 06:30:59;;;;;;;31.25;19.85;;;;;;;-145.61;100.00;68426.72;5073077;28;20028;-85
2021/06/24 06:33:26;;;;;;;30.75;21.23;;;;;;;-145.61;100.00;68426.72;5073339;28;20029;-85
2021/06/24 06:35:52;;;;;;;30.50;20.88;;;;;;;-145.61;100.00;68426.72;5069045;28;20294;-85
2021/06/24 06:38:22;;;;;;;32.22;19.38;;;;;;;-145.61;100.00;68426.72;5086787;28;20035;-86
2021/06/24 06:40:48;;;;;;;23.90;19.63;;;;;;;-145.61;100.00;68426.72;5068897;28;20111;-86
2021/06/24 06:43:15;;;;;;;28.60;19.30;;;;;;;-145.61;100.00;68426.72;5081089;28;20043;-86
2021/06/24 06:45:42;;;;;;;25.95;19.27;;;;;;;-145.61;100.00;68426.72;5071571;28;20025;-86
2021/06/24 06:48:09;;;;;;;26.63;18.30;;;;;;;-145.61;100.00;68426.72;5069581;28;20024;-85
2021/06/24 06:50:34;;;;;;;27.80;19.13;;;;;;;-145.61;100.00;68426.72;5058747;28;20932;-84
2021/06/24 06:53:00;;;;;;;24.77;19.20;;;;;;;-145.61;100.00;68426.72;5062029;28;20025;-86
2021/06/24 06:55:28;;;;;;;23.25;19.27;;;;;;;-145.61;100.00;68426.72;5074343;28;20382;-86
2021/06/24 06:57:56;;;;;;;28.92;20.35;;;;;;;-145.61;100.00;68426.72;5075631;28;20025;-86
2021/06/24 07:00:23;;;;;;;23.02;16.70;;;;;;;-145.61;100.00;68426.72;5076661;28;20028;-86
2021/06/24 07:02:50;;;;;;;27.90;17.98;;;;;;;-145.61;100.00;68426.72;5074554;28;20024;-85
2021/06/24 07:05:15;;;;;;;26.40;17.60;;;;;;;-145.61;100.00;68426.72;5073249;28;20420;-85
2021/06/24 07:07:41;;;;;;;29.70;16.50;;;;;;;-145.61;100.00;68426.72;5076679;28;20036;-86
2021/06/24 07:10:07;;;;;;;29.30;16.90;;;;;;;-145.61;100.00;68426.72;5075304;28;20042;-86
2021/06/24 07:12:33;;;;;;;22.98;15.57;;;;;;;-145.61;100.00;68426.72;5066864;28;20058;-85
2021/06/24 07:14:59;;;;;;;20.83;15.35;;;;;;;-145.61;100.00;68426.72;5083222;28;20025;-86
2021/06/24 07:17:25;;;;;;;25.60;16.00;;;;;;;-145.61;100.00;68426.72;5092330;28;20047;-85
2021/06/24 07:19:50;;;;;;;21.70;15.25;;;;;;;-145.61;100.00;68426.72;5088555;28;20067;-86
2021/06/24 07:22:16;;;;;;;26.40;14.65;;;;;;;-145.61;100.00;68426.72;5074781;28;20123;-85
2021/06/24 07:24:41;;;;;;;23.63;15.30;;;;;;;-145.61;100.00;68426.72;5073079;28;20128;-86
2021/06/24 07:27:07;;;;;;;22.85;13.85;;;;;;;-145.61;100.00;68426.72;5066202;28;20106;-85
2021/06/24 07:29:32;;;;;;;16.10;11.07;;;;;;;-145.61;100.00;68426.72;5082768;28;20094;-84
2021/06/24 07:31:58;;;;;;;14.57;8.40;;;;;;;-145.61;100.00;68426.72;5075516;28;20187;-85
2021/06/24 07:34:24;;;;;;;14.75;8.88;;;;;;;25.15;64.12;96188.41;5092212;28;20039;-86
2021/06/24 07:36:50;;;;;;;16.88;8.18;;;;;;;25.15;64.12;96188.41;5070875;28;20024;-86
2021/06/24 07:39:15;;;;;;;17.77;7.60;;;;;;;25.24;63.13;96170.41;5073962;28;20103;-86
2021/06/24 07:41:41;;;;;;;14.05;7.60;;;;;;;25.24;63.13;96170.41;5073399;28;20504;-85
2021/06/24 07:44:07;;;;;;;13.25;7.88;;;;;;;25.24;63.13;96170.41;5090500;28;20333;-86
2021/06/24 07:46:32;;;;;;;10.93;6.82;;;;;;;25.59;62.58;96186.03;5074044;28;20036;-86
2021/06/24 07:48:58;;;;;;;13.27;8.10;;;;;;;25.64;60.08;96173.22;5073280;28;20024;-85
2021/06/24 07:51:24;;;;;;;15.70;7.95;;;;;;;25.61;61.20;96158.38;5074655;28;20110;-86
2021/06/24 07:53:49;;;;;;;14.85;8.07;;;;;;;25.65;61.41;96160.06;5074516;28;20031;-85
2021/06/24 07:56:16;;;;;;;12.25;7.43;;;;;;;25.98;60.34;96194.91;5089941;28;20433;-85
2021/06/24 07:58:42;;;;;;;11.00;6.70;;;;;;;26.03;57.73;96163.38;5075015;28;20413;-86
2021/06/24 08:01:08;;;;;;;14.82;7.30;;;;;;;26.37;55.15;96173.88;5075757;28;20028;-86
2021/06/24 08:03:35;;;;;;;9.38;5.65;;;;;;;26.44;55.85;96175.16;5075242;28;20021;-85
2021/06/24 08:06:02;;;;;;;15.43;6.93;;;;;;;26.41;54.82;96175.53;5072884;28;20033;-86
2021/06/24 08:08:28;;;;;;;14.18;7.03;;;;;;;26.48;54.47;96163.63;5071347;28;20484;-86
2021/06/24 08:10:55;;;;;;;10.88;5.18;;;;;;;26.68;51.25;96164.53;5077566;28;20132;-86
2021/06/24 08:13:22;;;;;;;12.85;4.97;;;;;;;26.87;51.23;96182.19;5072631;28;20074;-85
2021/06/24 08:15:50;;;;;;;14.45;5.20;;;;;;;26.73;48.21;96141.28;5075054;28;20039;-86
2021/06/24 08:18:16;;;;;;;13.68;4.75;;;;;;;27.05;47.11;96166.22;5062389;28;20916;-86
2021/06/24 08:20:42;;;;;;;11.32;4.38;;;;;;;27.07;46.42;96155.28;5075325;28;20044;-85
2021/06/24 08:23:08;;;;;;;13.68;4.43;;;;;;;27.28;48.84;96173.63;5072621;28;20119;-86
2021/06/24 08:25:34;;;;;;;11.23;4.70;;;;;;;27.16;47.27;96145.50;5090528;28;20115;-86
2021/06/24 08:27:59;;;;;;;8.48;4.50;;;;;;;27.25;46.16;96133.69;5073581;28;20115;-86
2021/06/24 08:30:25;;;;;;;11.68;4.68;;;;;;;27.48;45.94;96149.41;5074020;28;20389;-87
2021/06/24 08:32:51;;;;;;;13.43;5.03;;;;;;;27.19;45.27;96094.22;5073208;28;20052;-86
2021/06/24 08:35:17;;;;;;;8.45;3.85;;;;;;;27.50;45.34;96136.38;5074441;28;20979;-88
2021/06/24 08:37:43;;;;;;;23.20;17.48;;;;;;;27.73;45.34;96146.50;5075198;28;20020;-86
2021/06/24 08:40:10;;;;;;;14.73;8.35;;;;;;;27.87;44.46;96156.72;5072055;28;20035;-86
2021/06/24 08:42:37;;;;;;;10.68;4.88;;;;;;;27.81;41.28;96119.25;5073858;28;20306;-86
2021/06/24 08:45:06;;;;;;;11.65;4.72;;;;;;;28.14;41.65;96165.06;5061951;28;20071;-86
2021/06/24 08:47:32;;;;;;;10.80;4.43;;;;;;;27.89;43.64;96112.22;5053147;28;20383;-86
2021/06/24 08:49:59;;;;;;;15.35;3.97;;;;;;;28.16;43.81;96151.25;5062994;28;20070;-86
2021/06/24 08:52:25;;;;;;;10.43;4.10;;;;;;;28.37;41.85;96170.31;5073309;28;20081;-86
2021/06/24 08:54:51;;;;;;;9.00;3.88;;;;;;;28.43;40.92;96167.97;5074296;28;20027;-86
2021/06/24 08:57:16;;;;;;;10.60;4.15;;;;;;;28.19;43.36;96124.97;5072880;28;20032;-85
2021/06/24 08:59:43;;;;;;;12.68;4.20;;;;;;;28.49;40.02;96136.25;5074898;28;20035;-85
2021/06/24 09:02:12;;;;;;;10.48;4.00;;;;;;;28.80;41.56;96164.38;5073456;28;20112;-85
2021/06/24 09:04:41;;;;;;;10.23;3.95;;;;;;;28.67;42.52;96137.63;5072823;28;20032;-86
2021/06/24 09:07:21;;;;;;;16.67;4.35;;;;;;;28.68;39.28;96131.44;5068005;28;20695;-86
2021/06/24 09:09:52;;;;;;;12.82;4.22;;;;;;;29.08;40.47;96171.34;5072610;28;20032;-86
2021/06/24 09:12:18;;;;;;;12.02;4.30;;;;;;;28.97;40.55;96155.91;5072447;28;20324;-86
2021/06/24 09:14:50;;;;;;;12.98;4.65;;;;;;;29.21;40.73;96170.94;5073177;28;20029;-86
2021/06/24 09:17:38;;;;;;;8.38;4.30;;;;;;;29.34;38.25;96172.53;5072875;28;20025;-86
2021/06/24 09:20:25;;;;;;;8.52;4.60;;;;;;;29.33;38.31;96145.91;5072975;28;20025;-86
2021/06/24 09:23:12;;;;;;;11.27;4.50;;;;;;;29.41;39.34;96161.22;5055918;28;20424;-86
2021/06/24 09:25:40;;;;;;;12.43;4.55;;;;;;;29.41;39.15;96146.50;5078570;28;20182;-86
2021/06/24 09:28:06;;;;;;;14.10;4.13;;;;;;;29.51;39.17;96141.63;5072663;28;20059;-86
2021/06/24 09:30:37;;;;;;;12.32;4.82;;;;;;;29.75;39.39;96167.78;5068981;28;20023;-86
2021/06/24 09:33:17;;;;;;;12.07;4.88;;;;;;;29.87;38.68;96160.25;5069621;28;20042;-86
2021/06/24 09:35:57;;;;;;;14.40;4.47;;;;;;;29.76;38.29;96138.50;5071258;28;20039;-86
2021/06/24 09:38:23;;;;;;;13.02;4.55;;;;;;;29.83;39.57;96139.63;5066006;28;20464;-87
2021/06/24 09:40:54;;;;;;;7.50;3.75;;;;;;;29.96;39.09;96139.91;5067153;28;20078;-87
2021/06/24 09:43:22;;;;;;;10.65;4.13;;;;;;;30.19;39.24;96161.78;5051575;28;20059;-85
2021/06/24 09:46:18;;;;;;;17.10;4.90;;;;;;;30.27;38.41;96167.22;5072601;28;20040;-86
2021/06/24 09:48:53;;;;;;;14.43;4.75;;;;;;;30.33;37.89;96169.69;5066226;28;20032;-86
2021/06/24 09:51:21;;;;;;;11.38;4.47;;;;;;;30.38;38.95;96146.97;5058073;28;20032;-85
2021/06/24 09:53:52;;;;;;;11.90;4.68;;;;;;;30.55;38.27;96164.88;5064770;28;20432;-86
2021/06/24 09:56:33;;;;;;;10.57;4.20;;;;;;;30.66;37.01;96155.81;5071830;28;20408;-85
2021/06/24 09:59:03;;;;;;;18.67;10.18;;;;;;;30.74;38.70;96168.31;5072785;28;20024;-86
2021/06/24 10:01:37;;;;;;;13.02;7.07;;;;;;;30.86;36.78;96162.06;5067592;28;20033;-85
2021/06/24 10:04:05;;;;;;;14.50;5.80;;;;;;;30.63;35.63;96114.97;5080372;28;20036;-85
2021/06/24 10:06:32;;;;;;;14.70;4.93;;;;;;;31.06;36.22;96162.66;5072214;28;20031;-85
2021/06/24 10:08:58;;;;;;;11.27;4.82;;;;;;;31.07;36.66;96159.25;5066373;28;20024;-85
2021/06/24 10:11:24;;;;;;;14.75;4.60;;;;;;;30.99;36.91;96122.28;5071377;28;20039;-86
2021/06/24 10:13:51;;;;;;;11.70;4.30;;;;;;;31.22;37.22;96156.03;5071882;28;20047;-85
2021/06/24 10:16:17;;;;;;;11.63;4.20;;;;;;;31.35;36.89;96157.56;5076532;28;20016;-84
2021/06/24 10:18:47;;;;;;;14.95;4.60;;;;;;;31.47;35.21;96155.53;5072351;28;20048;-86
2021/06/24 10:21:17;;;;;;;13.50;4.78;;;;;;;31.23;36.54;96115.44;5090940;28;20025;-86
2021/06/24 10:23:50;;;;;;;13.38;4.38;;;;;;;31.41;37.10;96124.28;5072628;28;20058;-86
2021/06/24 10:26:17;;;;;;;13.40;3.97;;;;;;;31.64;36.37;96146.09;5073238;28;20033;-86
2021/06/24 10:28:43;;;;;;;16.20;4.80;;;;;;;31.45;35.19;96110.53;5072922;28;20072;-85
2021/06/24 10:31:38;;;;;;;10.98;4.35;;;;;;;31.87;34.87;96145.41;5056285;28;20075;-86
2021/06/24 10:34:04;;;;;;;11.07;4.63;;;;;;;31.74;35.28;96107.41;5056344;28;20025;-87
2021/06/24 10:36:32;;;;;;;11.65;5.00;;;;;;;32.14;36.30;96147.75;5063741;28;20051;-87
2021/06/24 10:38:58;;;;;;;13.32;4.88;;;;;;;32.19;34.16;96149.47;5059045;28;20305;-86
2021/06/24 10:41:25;;;;;;;15.82;4.60;;;;;;;32.31;35.00;96147.38;5076697;28;20036;-86
2021/06/24 10:43:52;;;;;;;10.07;4.30;;;;;;;32.11;35.26;96103.31;5074425;28;20028;-86
2021/06/24 10:46:21;;;;;;;16.42;4.90;;;;;;;32.06;34.62;96079.88;5055674;28;20028;-85
2021/06/24 10:48:47;;;;;;;14.20;4.38;;;;;;;32.43;34.89;96118.59;5088794;28;20106;-86
2021/06/24 10:51:15;;;;;;;16.45;4.68;;;;;;;32.73;34.49;96144.94;5080884;28;20111;-87
2021/06/24 10:53:54;;;;;;;41.22;22.52;;;;;;;32.73;32.27;96147.75;5075814;28;20031;-84
2021/06/24 10:56:31;;;;;;;12.13;5.95;;;;;;;33.01;33.00;96146.59;5073043;28;20020;-84
2021/06/24 10:58:59;;;;;;;14.30;4.97;;;;;;;33.04;32.68;96136.94;5071859;28;20025;-86
2021/06/24 11:01:49;;;;;;;12.65;4.70;;;;;;;33.15;32.68;96131.91;5091014;28;20443;-85
2021/06/24 11:04:37;;;;;;;12.40;4.38;;;;;;;33.26;31.47;96131.13;5075504;28;20085;-85
2021/06/24 11:07:24;;;;;;;14.93;4.45;;;;;;;33.46;32.52;96137.19;5076587;28;20029;-86
2021/06/24 11:10:16;;;;;;;13.60;4.60;;;;;;;33.68;30.71;96135.56;5072971;28;20124;-87
2021/06/24 11:12:49;;;;;;;17.83;4.30;;;;;;;33.48;31.84;96112.69;5076521;28;20095;-84
2021/06/24 11:15:45;;;;;;;14.32;4.35;;;;;;;33.68;31.00;96115.16;5074931;28;20020;-83